sensor_id;sensor_type;location;lat;lon;timestamp;pressure;altitude;pressure_sealevel;temperature;humidity
29935;BME280;19905;53.370;-6.314;2023-03-25T00:01:19;98928.78;;;7.65;100.00
29935;BME280;19905;53.370;-6.314;2023-03-25T00:03:52;98924.81;;;7.61;100.00
29935;BME280;19905;53.370;-6.314;2023-03-25T00:06:20;98933.94;;;7.57;100.00
29935;BME280;19905;53.370;-6.314;2023-03-25T00:08:49;98964.75;;;7.55;100.00
29935;BME280;19905;53.370;-6.314;2023-03-25T00:11:17;98940.28;;;7.54;100.00
29935;BME280;19905;53.370;-6.314;2023-03-25T00:13:49;98956.31;;;7.51;100.00
29935;BME280;19905;53.370;-6.314;2023-03-25T00:16:17;98956.19;;;7.53;100.00
29935;BME280;19905;53.370;-6.314;2023-03-25T00:18:46;98958.13;;;7.51;100.00
29935;BME280;19905;53.370;-6.314;2023-03-25T00:21:17;98968.94;;;7.48;100.00
29935;BME280;19905;53.370;-6.314;2023-03-25T00:23:46;98969.59;;;7.50;100.00
29935;BME280;19905;53.370;-6.314;2023-03-25T00:26:15;98976.25;;;7.54;100.00
29935;BME280;19905;53.370;-6.314;2023-03-25T00:28:44;98975.97;;;7.57;100.00
29935;BME280;19905;53.370;-6.314;2023-03-25T00:31:14;98991.44;;;7.60;100.00
29935;BME280;19905;53.370;-6.314;2023-03-25T00:33:43;98988.53;;;7.63;100.00
29935;BME280;19905;53.370;-6.314;2023-03-25T00:36:12;99005.97;;;7.64;100.00
29935;BME280;19905;53.370;-6.314;2023-03-25T00:38:42;99003.31;;;7.64;100.00
29935;BME280;19905;53.370;-6.314;2023-03-25T00:41:15;99001.53;;;7.64;100.00
29935;BME280;19905;53.370;-6.314;2023-03-25T00:43:51;99003.63;;;7.71;100.00
29935;BME280;19905;53.370;-6.314;2023-03-25T00:46:24;99012.59;;;7.68;100.00
29935;BME280;19905;53.370;-6.314;2023-03-25T00:48:54;99029.50;;;7.66;100.00
29935;BME280;19905;53.370;-6.314;2023-03-25T00:51:26;99015.22;;;7.68;100.00
29935;BME280;19905;53.370;-6.314;2023-03-25T00:53:58;99020.47;;;7.68;100.00
29935;BME280;19905;53.370;-6.314;2023-03-25T00:56:28;99025.72;;;7.68;100.00
29935;BME280;19905;53.370;-6.314;2023-03-25T00:58:58;99027.25;;;7.71;100.00
29935;BME280;19905;53.370;-6.314;2023-03-25T01:01:28;99031.00;;;7.68;100.00
29935;BME280;19905;53.370;-6.314;2023-03-25T01:03:58;99038.31;;;7.64;100.00
29935;BME280;19905;53.370;-6.314;2023-03-25T01:06:32;99029.75;;;7.62;100.00
29935;BME280;19905;53.370;-6.314;2023-03-25T01:09:03;99050.94;;;7.61;100.00
29935;BME280;19905;53.370;-6.314;2023-03-25T01:11:33;99038.31;;;7.55;100.00
29935;BME280;19905;53.370;-6.314;2023-03-25T01:14:06;99047.59;;;7.49;100.00
29935;BME280;19905;53.370;-6.314;2023-03-25T01:16:36;99083.00;;;7.45;100.00
29935;BME280;19905;53.370;-6.314;2023-03-25T01:19:05;99043.72;;;7.44;100.00
29935;BME280;19905;53.370;-6.314;2023-03-25T01:21:34;99049.09;;;7.42;100.00
29935;BME280;19905;53.370;-6.314;2023-03-25T01:24:03;99059.34;;;7.35;100.00
29935;BME280;19905;53.370;-6.314;2023-03-25T01:26:32;99052.84;;;7.30;100.00
29935;BME280;19905;53.370;-6.314;2023-03-25T01:29:01;99061.97;;;7.26;100.00
29935;BME280;19905;53.370;-6.314;2023-03-25T01:31:30;99069.28;;;7.22;100.00
29935;BME280;19905;53.370;-6.314;2023-03-25T01:34:00;99070.50;;;7.18;100.00
29935;BME280;19905;53.370;-6.314;2023-03-25T01:36:30;99069.13;;;7.14;100.00
29935;BME280;19905;53.370;-6.314;2023-03-25T01:38:59;99066.38;;;7.16;100.00
29935;BME280;19905;53.370;-6.314;2023-03-25T01:41:28;99058.19;;;7.09;100.00
29935;BME280;19905;53.370;-6.314;2023-03-25T01:47:22;99066.88;;;7.00;100.00
29935;BME280;19905;53.370;-6.314;2023-03-25T01:49:54;99081.13;;;6.97;100.00
29935;BME280;19905;53.370;-6.314;2023-03-25T01:52:24;99091.88;;;6.94;100.00
29935;BME280;19905;53.370;-6.314;2023-03-25T01:54:56;99083.03;;;6.95;100.00
29935;BME280;19905;53.370;-6.314;2023-03-25T01:57:26;99094.66;;;6.93;100.00
29935;BME280;19905;53.370;-6.314;2023-03-25T01:59:59;99095.59;;;6.92;100.00
29935;BME280;19905;53.370;-6.314;2023-03-25T02:02:34;99094.66;;;6.93;100.00
29935;BME280;19905;53.370;-6.314;2023-03-25T02:05:15;99101.81;;;6.91;100.00
29935;BME280;19905;53.370;-6.314;2023-03-25T02:07:48;99109.84;;;6.99;100.00
29935;BME280;19905;53.370;-6.314;2023-03-25T02:10:17;99113.31;;;6.99;100.00
29935;BME280;19905;53.370;-6.314;2023-03-25T02:12:47;99114.84;;;7.02;100.00
29935;BME280;19905;53.370;-6.314;2023-03-25T02:15:17;99112.22;;;7.02;100.00
29935;BME280;19905;53.370;-6.314;2023-03-25T02:17:59;99131.44;;;7.02;100.00
29935;BME280;19905;53.370;-6.314;2023-03-25T02:20:56;99131.28;;;7.04;100.00
29935;BME280;19905;53.370;-6.314;2023-03-25T02:23:44;99145.38;;;7.03;100.00
29935;BME280;19905;53.370;-6.314;2023-03-25T02:26:38;99160.56;;;6.99;100.00
29935;BME280;19905;53.370;-6.314;2023-03-25T02:29:28;99137.50;;;7.03;100.00
29935;BME280;19905;53.370;-6.314;2023-03-25T02:32:13;99160.69;;;6.98;100.00
29935;BME280;19905;53.370;-6.314;2023-03-25T02:35:03;99156.41;;;6.97;100.00
29935;BME280;19905;53.370;-6.314;2023-03-25T02:40:47;99179.47;;;6.93;100.00
29935;BME280;19905;53.370;-6.314;2023-03-25T02:43:23;99177.25;;;6.88;100.00
29935;BME280;19905;53.370;-6.314;2023-03-25T02:45:56;99184.41;;;6.86;100.00
29935;BME280;19905;53.370;-6.314;2023-03-25T02:48:31;99195.03;;;6.85;100.00
29935;BME280;19905;53.370;-6.314;2023-03-25T02:51:06;99182.88;;;6.84;100.00
29935;BME280;19905;53.370;-6.314;2023-03-25T02:53:38;99194.59;;;6.80;100.00
29935;BME280;19905;53.370;-6.314;2023-03-25T02:56:14;99197.47;;;6.77;100.00
29935;BME280;19905;53.370;-6.314;2023-03-25T02:58:44;99199.28;;;6.76;100.00
29935;BME280;19905;53.370;-6.314;2023-03-25T03:01:14;99210.88;;;6.74;100.00
29935;BME280;19905;53.370;-6.314;2023-03-25T03:03:44;99206.84;;;6.70;100.00
29935;BME280;19905;53.370;-6.314;2023-03-25T03:06:15;99210.00;;;6.73;100.00
29935;BME280;19905;53.370;-6.314;2023-03-25T03:08:56;99218.03;;;6.72;100.00
29935;BME280;19905;53.370;-6.314;2023-03-25T03:11:36;99229.34;;;6.72;100.00
29935;BME280;19905;53.370;-6.314;2023-03-25T03:14:31;99250.47;;;6.71;100.00
29935;BME280;19905;53.370;-6.314;2023-03-25T03:17:08;99241.19;;;6.67;100.00
29935;BME280;19905;53.370;-6.314;2023-03-25T03:19:42;99244.06;;;6.63;100.00
29935;BME280;19905;53.370;-6.314;2023-03-25T03:22:27;99251.00;;;6.65;100.00
29935;BME280;19905;53.370;-6.314;2023-03-25T03:25:05;99263.66;;;6.59;100.00
29935;BME280;19905;53.370;-6.314;2023-03-25T03:27:42;99263.66;;;6.59;100.00
29935;BME280;19905;53.370;-6.314;2023-03-25T03:30:18;99269.28;;;6.55;100.00
29935;BME280;19905;53.370;-6.314;2023-03-25T03:32:54;99268.59;;;6.53;100.00
29935;BME280;19905;53.370;-6.314;2023-03-25T03:35:30;99267.75;;;6.52;100.00
29935;BME280;19905;53.370;-6.314;2023-03-25T03:38:08;99277.66;;;6.49;100.00
29935;BME280;19905;53.370;-6.314;2023-03-25T03:40:40;99286.50;;;6.48;100.00
29935;BME280;19905;53.370;-6.314;2023-03-25T03:43:14;99285.91;;;6.44;100.00
29935;BME280;19905;53.370;-6.314;2023-03-25T03:45:48;99302.59;;;6.43;100.00
29935;BME280;19905;53.370;-6.314;2023-03-25T03:48:23;99309.75;;;6.41;100.00
29935;BME280;19905;53.370;-6.314;2023-03-25T03:50:55;99327.28;;;6.41;100.00
29935;BME280;19905;53.370;-6.314;2023-03-25T03:53:30;99319.41;;;6.41;100.00
29935;BME280;19905;53.370;-6.314;2023-03-25T03:56:03;99332.81;;;6.38;100.00
29935;BME280;19905;53.370;-6.314;2023-03-25T03:58:38;99329.72;;;6.32;100.00
29935;BME280;19905;53.370;-6.314;2023-03-25T04:01:10;99333.41;;;6.30;100.00
29935;BME280;19905;53.370;-6.314;2023-03-25T04:03:44;99342.94;;;6.31;100.00
29935;BME280;19905;53.370;-6.314;2023-03-25T04:06:18;99338.19;;;6.25;100.00
29935;BME280;19905;53.370;-6.314;2023-03-25T04:08:55;99353.19;;;6.23;100.00
29935;BME280;19905;53.370;-6.314;2023-03-25T04:11:30;99350.84;;;6.20;100.00
29935;BME280;19905;53.370;-6.314;2023-03-25T04:14:03;99348.91;;;6.22;100.00
29935;BME280;19905;53.370;-6.314;2023-03-25T04:16:33;99361.44;;;6.18;100.00
29935;BME280;19905;53.370;-6.314;2023-03-25T04:19:05;99363.94;;;6.20;100.00
29935;BME280;19905;53.370;-6.314;2023-03-25T04:21:35;99369.28;;;6.18;100.00
29935;BME280;19905;53.370;-6.314;2023-03-25T04:24:05;99382.53;;;6.17;100.00
29935;BME280;19905;53.370;-6.314;2023-03-25T04:26:34;99372.78;;;6.19;100.00
29935;BME280;19905;53.370;-6.314;2023-03-25T04:29:05;99385.16;;;6.17;100.00
29935;BME280;19905;53.370;-6.314;2023-03-25T04:31:36;99360.22;;;6.22;100.00
29935;BME280;19905;53.370;-6.314;2023-03-25T04:34:12;99378.50;;;6.13;100.00
29935;BME280;19905;53.370;-6.314;2023-03-25T04:36:42;99391.00;;;6.09;100.00
29935;BME280;19905;53.370;-6.314;2023-03-25T04:39:11;99412.09;;;6.07;100.00
29935;BME280;19905;53.370;-6.314;2023-03-25T04:41:44;99399.00;;;6.07;100.00
29935;BME280;19905;53.370;-6.314;2023-03-25T04:44:14;99405.91;;;6.08;100.00
29935;BME280;19905;53.370;-6.314;2023-03-25T04:46:48;99408.66;;;6.07;100.00
29935;BME280;19905;53.370;-6.314;2023-03-25T04:49:18;99411.41;;;6.05;100.00
29935;BME280;19905;53.370;-6.314;2023-03-25T04:51:47;99416.88;;;6.02;100.00
29935;BME280;19905;53.370;-6.314;2023-03-25T04:54:17;99421.97;;;6.04;100.00
29935;BME280;19905;53.370;-6.314;2023-03-25T04:56:47;99423.69;;;6.05;100.00
29935;BME280;19905;53.370;-6.314;2023-03-25T04:59:20;99428.06;;;6.04;100.00
29935;BME280;19905;53.370;-6.314;2023-03-25T05:01:50;99425.22;;;6.07;100.00
29935;BME280;19905;53.370;-6.314;2023-03-25T05:04:19;99429.38;;;6.10;100.00
29935;BME280;19905;53.370;-6.314;2023-03-25T05:06:50;99429.13;;;6.13;100.00
29935;BME280;19905;53.370;-6.314;2023-03-25T05:09:20;99441.19;;;6.16;100.00
29935;BME280;19905;53.370;-6.314;2023-03-25T05:11:50;99444.28;;;6.21;100.00
29935;BME280;19905;53.370;-6.314;2023-03-25T05:14:22;99438.31;;;6.30;100.00
29935;BME280;19905;53.370;-6.314;2023-03-25T05:16:50;99441.88;;;6.29;100.00
29935;BME280;19905;53.370;-6.314;2023-03-25T05:19:19;99457.25;;;6.33;100.00
29935;BME280;19905;53.370;-6.314;2023-03-25T05:21:48;99455.34;;;6.35;100.00
29935;BME280;19905;53.370;-6.314;2023-03-25T05:24:17;99456.16;;;6.36;100.00
29935;BME280;19905;53.370;-6.314;2023-03-25T05:26:46;99454.38;;;6.36;100.00
29935;BME280;19905;53.370;-6.314;2023-03-25T05:29:15;99471.81;;;6.38;100.00
29935;BME280;19905;53.370;-6.314;2023-03-25T05:31:46;99469.66;;;6.43;100.00
29935;BME280;19905;53.370;-6.314;2023-03-25T05:34:16;99467.72;;;6.45;100.00
29935;BME280;19905;53.370;-6.314;2023-03-25T05:36:46;99485.13;;;6.46;100.00
29935;BME280;19905;53.370;-6.314;2023-03-25T05:39:15;99480.47;;;6.49;100.00
29935;BME280;19905;53.370;-6.314;2023-03-25T05:41:44;99490.72;;;6.52;100.00
29935;BME280;19905;53.370;-6.314;2023-03-25T05:44:13;99488.94;;;6.53;100.00
29935;BME280;19905;53.370;-6.314;2023-03-25T05:46:46;99501.00;;;6.55;100.00
29935;BME280;19905;53.370;-6.314;2023-03-25T05:49:16;99496.94;;;6.51;100.00
29935;BME280;19905;53.370;-6.314;2023-03-25T05:51:45;99502.41;;;6.48;100.00
29935;BME280;19905;53.370;-6.314;2023-03-25T05:54:15;99513.13;;;6.45;100.00
29935;BME280;19905;53.370;-6.314;2023-03-25T05:56:45;99515.91;;;6.44;100.00
29935;BME280;19905;53.370;-6.314;2023-03-25T05:59:15;99514.22;;;6.43;100.00
29935;BME280;19905;53.370;-6.314;2023-03-25T06:01:44;99519.84;;;6.38;100.00
29935;BME280;19905;53.370;-6.314;2023-03-25T06:04:13;99529.59;;;6.36;100.00
29935;BME280;19905;53.370;-6.314;2023-03-25T06:06:42;99534.97;;;6.34;100.00
29935;BME280;19905;53.370;-6.314;2023-03-25T06:09:11;99532.47;;;6.33;100.00
29935;BME280;19905;53.370;-6.314;2023-03-25T06:11:39;99542.84;;;6.34;100.00
29935;BME280;19905;53.370;-6.314;2023-03-25T06:14:09;99535.66;;;6.36;100.00
29935;BME280;19905;53.370;-6.314;2023-03-25T06:16:40;99549.53;;;6.39;100.00
29935;BME280;19905;53.370;-6.314;2023-03-25T06:19:10;99554.75;;;6.39;100.00
29935;BME280;19905;53.370;-6.314;2023-03-25T06:21:40;99558.09;;;6.41;100.00
29935;BME280;19905;53.370;-6.314;2023-03-25T06:24:09;99547.97;;;6.47;100.00
29935;BME280;19905;53.370;-6.314;2023-03-25T06:26:38;99577.31;;;6.52;100.00
29935;BME280;19905;53.370;-6.314;2023-03-25T06:29:06;99579.56;;;6.57;100.00
29935;BME280;19905;53.370;-6.314;2023-03-25T06:31:35;99575.50;;;6.64;100.00
29935;BME280;19905;53.370;-6.314;2023-03-25T06:34:04;99582.19;;;6.68;100.00
29935;BME280;19905;53.370;-6.314;2023-03-25T06:36:34;99587.78;;;6.75;100.00
29935;BME280;19905;53.370;-6.314;2023-03-25T06:39:04;99585.50;;;6.81;100.00
29935;BME280;19905;53.370;-6.314;2023-03-25T06:41:34;99592.78;;;6.89;100.00
29935;BME280;19905;53.370;-6.314;2023-03-25T06:44:04;99596.94;;;7.03;100.00
29935;BME280;19905;53.370;-6.314;2023-03-25T06:46:33;99605.28;;;7.08;100.00
29935;BME280;19905;53.370;-6.314;2023-03-25T06:49:01;99603.00;;;7.14;100.00
29935;BME280;19905;53.370;-6.314;2023-03-25T06:51:29;99613.13;;;7.19;100.00
29935;BME280;19905;53.370;-6.314;2023-03-25T06:53:58;99619.25;;;7.20;100.00
29935;BME280;19905;53.370;-6.314;2023-03-25T06:56:28;99612.78;;;7.24;100.00
29935;BME280;19905;53.370;-6.314;2023-03-25T06:58:56;99623.16;;;7.25;100.00
29935;BME280;19905;53.370;-6.314;2023-03-25T07:01:25;99632.47;;;7.29;100.00
29935;BME280;19905;53.370;-6.314;2023-03-25T07:03:54;99621.00;;;7.30;100.00
29935;BME280;19905;53.370;-6.314;2023-03-25T07:06:24;99634.16;;;7.30;100.00
29935;BME280;19905;53.370;-6.314;2023-03-25T07:08:53;99649.53;;;7.35;100.00
29935;BME280;19905;53.370;-6.314;2023-03-25T07:11:24;99643.19;;;7.37;100.00
29935;BME280;19905;53.370;-6.314;2023-03-25T07:13:56;99662.06;;;7.43;100.00
29935;BME280;19905;53.370;-6.314;2023-03-25T07:16:25;99644.13;;;7.48;100.00
29935;BME280;19905;53.370;-6.314;2023-03-25T07:18:54;99644.69;;;7.51;100.00
29935;BME280;19905;53.370;-6.314;2023-03-25T07:21:23;99637.19;;;7.58;100.00
29935;BME280;19905;53.370;-6.314;2023-03-25T07:23:52;99643.41;;;7.57;100.00
29935;BME280;19905;53.370;-6.314;2023-03-25T07:26:21;99637.69;;;7.52;100.00
29935;BME280;19905;53.370;-6.314;2023-03-25T07:28:49;99648.56;;;7.47;100.00
29935;BME280;19905;53.370;-6.314;2023-03-25T07:31:20;99634.94;;;7.42;100.00
29935;BME280;19905;53.370;-6.314;2023-03-25T07:33:48;99651.44;;;7.44;100.00
29935;BME280;19905;53.370;-6.314;2023-03-25T07:36:20;99643.03;;;7.50;100.00
29935;BME280;19905;53.370;-6.314;2023-03-25T07:38:49;99641.97;;;7.53;100.00
29935;BME280;19905;53.370;-6.314;2023-03-25T07:41:20;99636.22;;;7.59;100.00
29935;BME280;19905;53.370;-6.314;2023-03-25T07:43:48;99640.75;;;7.57;100.00
29935;BME280;19905;53.370;-6.314;2023-03-25T07:46:17;99653.53;;;7.61;100.00
29935;BME280;19905;53.370;-6.314;2023-03-25T07:48:48;99665.09;;;7.70;100.00
29935;BME280;19905;53.370;-6.314;2023-03-25T07:51:17;99662.66;;;7.78;100.00
29935;BME280;19905;53.370;-6.314;2023-03-25T07:53:45;99671.50;;;7.77;100.00
29935;BME280;19905;53.370;-6.314;2023-03-25T07:56:14;99673.16;;;7.78;100.00
29935;BME280;19905;53.370;-6.314;2023-03-25T07:58:43;99668.50;;;7.82;100.00
29935;BME280;19905;53.370;-6.314;2023-03-25T08:01:12;99686.66;;;7.85;100.00
29935;BME280;19905;53.370;-6.314;2023-03-25T08:03:40;99676.28;;;7.83;100.00
29935;BME280;19905;53.370;-6.314;2023-03-25T08:06:10;99677.81;;;7.86;100.00
29935;BME280;19905;53.370;-6.314;2023-03-25T08:08:39;99680.78;;;7.93;100.00
29935;BME280;19905;53.370;-6.314;2023-03-25T08:11:07;99681.72;;;8.03;100.00
29935;BME280;19905;53.370;-6.314;2023-03-25T08:13:37;99676.66;;;8.11;100.00
29935;BME280;19905;53.370;-6.314;2023-03-25T08:16:10;99679.84;;;8.14;100.00
29935;BME280;19905;53.370;-6.314;2023-03-25T08:18:39;99687.25;;;8.21;100.00
29935;BME280;19905;53.370;-6.314;2023-03-25T08:21:13;99680.13;;;8.32;100.00
29935;BME280;19905;53.370;-6.314;2023-03-25T08:23:42;99691.59;;;8.31;100.00
29935;BME280;19905;53.370;-6.314;2023-03-25T08:26:11;99697.63;;;8.22;100.00
29935;BME280;19905;53.370;-6.314;2023-03-25T08:28:39;99703.22;;;8.29;100.00
29935;BME280;19905;53.370;-6.314;2023-03-25T08:31:08;99718.88;;;8.30;100.00
29935;BME280;19905;53.370;-6.314;2023-03-25T08:33:37;99705.97;;;8.38;100.00
29935;BME280;19905;53.370;-6.314;2023-03-25T08:36:08;99715.50;;;8.60;100.00
29935;BME280;19905;53.370;-6.314;2023-03-25T08:38:41;99719.34;;;8.56;100.00
29935;BME280;19905;53.370;-6.314;2023-03-25T08:41:10;99718.53;;;8.56;100.00
29935;BME280;19905;53.370;-6.314;2023-03-25T08:43:38;99724.31;;;8.50;100.00
29935;BME280;19905;53.370;-6.314;2023-03-25T08:46:10;99719.50;;;8.55;100.00
29935;BME280;19905;53.370;-6.314;2023-03-25T08:48:38;99713.59;;;8.62;100.00
29935;BME280;19905;53.370;-6.314;2023-03-25T08:51:07;99731.44;;;8.59;100.00
29935;BME280;19905;53.370;-6.314;2023-03-25T08:53:36;99722.19;;;8.64;100.00
29935;BME280;19905;53.370;-6.314;2023-03-25T08:56:08;99734.19;;;8.78;100.00
29935;BME280;19905;53.370;-6.314;2023-03-25T08:58:37;99739.50;;;8.88;100.00
29935;BME280;19905;53.370;-6.314;2023-03-25T09:01:06;99742.34;;;8.96;100.00
29935;BME280;19905;53.370;-6.314;2023-03-25T09:03:35;99747.47;;;8.98;100.00
29935;BME280;19905;53.370;-6.314;2023-03-25T09:06:05;99746.31;;;8.90;100.00
29935;BME280;19905;53.370;-6.314;2023-03-25T09:08:35;99751.78;;;8.99;100.00
29935;BME280;19905;53.370;-6.314;2023-03-25T09:11:06;99751.06;;;8.97;100.00
29935;BME280;19905;53.370;-6.314;2023-03-25T09:13:34;99760.97;;;9.04;100.00
29935;BME280;19905;53.370;-6.314;2023-03-25T09:16:04;99767.25;;;9.13;100.00
29935;BME280;19905;53.370;-6.314;2023-03-25T09:18:33;99769.84;;;9.03;100.00
29935;BME280;19905;53.370;-6.314;2023-03-25T09:21:03;99765.41;;;9.04;100.00
29935;BME280;19905;53.370;-6.314;2023-03-25T09:23:32;99765.91;;;8.98;100.00
29935;BME280;19905;53.370;-6.314;2023-03-25T09:26:02;99788.03;;;9.16;100.00
29935;BME280;19905;53.370;-6.314;2023-03-25T09:28:34;99773.09;;;9.16;100.00
29935;BME280;19905;53.370;-6.314;2023-03-25T09:31:02;99766.69;;;9.40;100.00
29935;BME280;19905;53.370;-6.314;2023-03-25T09:33:32;99772.34;;;9.35;100.00
29935;BME280;19905;53.370;-6.314;2023-03-25T09:36:00;99758.44;;;9.64;100.00
29935;BME280;19905;53.370;-6.314;2023-03-25T09:38:30;99759.72;;;9.99;100.00
29935;BME280;19905;53.370;-6.314;2023-03-25T09:41:00;99751.31;;;10.43;100.00
29935;BME280;19905;53.370;-6.314;2023-03-25T09:43:39;99748.41;;;10.56;100.00
29935;BME280;19905;53.370;-6.314;2023-03-25T09:46:17;99754.06;;;10.90;100.00
29935;BME280;19905;53.370;-6.314;2023-03-25T09:48:47;99756.00;;;10.88;100.00
29935;BME280;19905;53.370;-6.314;2023-03-25T09:51:22;99750.91;;;10.67;100.00
29935;BME280;19905;53.370;-6.314;2023-03-25T09:53:54;99762.00;;;10.71;100.00
29935;BME280;19905;53.370;-6.314;2023-03-25T09:56:25;99748.78;;;10.71;100.00
29935;BME280;19905;53.370;-6.314;2023-03-25T09:59:00;99766.13;;;10.93;100.00
29935;BME280;19905;53.370;-6.314;2023-03-25T10:01:36;99761.75;;;10.64;100.00
29935;BME280;19905;53.370;-6.314;2023-03-25T10:04:28;99775.06;;;10.53;100.00
29935;BME280;19905;53.370;-6.314;2023-03-25T10:07:06;99774.25;;;10.72;100.00
29935;BME280;19905;53.370;-6.314;2023-03-25T10:09:43;99768.41;;;10.68;100.00
29935;BME280;19905;53.370;-6.314;2023-03-25T10:12:27;99783.72;;;10.36;100.00
29935;BME280;19905;53.370;-6.314;2023-03-25T10:15:11;99771.41;;;10.06;100.00
29935;BME280;19905;53.370;-6.314;2023-03-25T10:17:51;99783.19;;;9.82;100.00
29935;BME280;19905;53.370;-6.314;2023-03-25T10:20:36;99783.94;;;10.13;100.00
29935;BME280;19905;53.370;-6.314;2023-03-25T10:23:16;99785.19;;;10.19;100.00
29935;BME280;19905;53.370;-6.314;2023-03-25T10:25:51;99780.84;;;9.99;100.00
29935;BME280;19905;53.370;-6.314;2023-03-25T10:28:27;99799.44;;;9.97;100.00
29935;BME280;19905;53.370;-6.314;2023-03-25T10:30:57;99789.28;;;9.83;100.00
29935;BME280;19905;53.370;-6.314;2023-03-25T10:33:32;99796.50;;;10.50;100.00
29935;BME280;19905;53.370;-6.314;2023-03-25T10:36:03;99803.28;;;10.53;100.00
29935;BME280;19905;53.370;-6.314;2023-03-25T10:38:35;99797.75;;;10.36;100.00
29935;BME280;19905;53.370;-6.314;2023-03-25T10:41:13;99805.94;;;10.33;100.00
29935;BME280;19905;53.370;-6.314;2023-03-25T10:43:43;99797.75;;;10.27;100.00
29935;BME280;19905;53.370;-6.314;2023-03-25T10:46:24;99813.56;;;10.27;100.00
29935;BME280;19905;53.370;-6.314;2023-03-25T10:48:54;99805.50;;;10.38;100.00
29935;BME280;19905;53.370;-6.314;2023-03-25T10:51:26;99805.66;;;10.75;100.00
29935;BME280;19905;53.370;-6.314;2023-03-25T10:53:57;99814.28;;;10.77;100.00
29935;BME280;19905;53.370;-6.314;2023-03-25T10:56:29;99804.13;;;10.73;100.00
29935;BME280;19905;53.370;-6.314;2023-03-25T10:59:02;99807.72;;;10.72;100.00
29935;BME280;19905;53.370;-6.314;2023-03-25T11:01:38;99813.16;;;10.70;100.00
29935;BME280;19905;53.370;-6.314;2023-03-25T11:04:11;99805.38;;;10.68;100.00
29935;BME280;19905;53.370;-6.314;2023-03-25T11:06:44;99809.53;;;10.71;100.00
29935;BME280;19905;53.370;-6.314;2023-03-25T11:09:15;99814.41;;;10.76;100.00
29935;BME280;19905;53.370;-6.314;2023-03-25T11:11:45;99803.69;;;10.97;100.00
29935;BME280;19905;53.370;-6.314;2023-03-25T11:14:15;99805.47;;;11.06;100.00
29935;BME280;19905;53.370;-6.314;2023-03-25T11:16:47;99825.06;;;11.13;100.00
29935;BME280;19905;53.370;-6.314;2023-03-25T11:19:20;99812.59;;;10.86;100.00
29935;BME280;19905;53.370;-6.314;2023-03-25T11:21:53;99819.84;;;10.64;100.00
29935;BME280;19905;53.370;-6.314;2023-03-25T11:24:30;99830.81;;;10.69;100.00
29935;BME280;19905;53.370;-6.314;2023-03-25T11:27:00;99823.16;;;11.05;100.00
29935;BME280;19905;53.370;-6.314;2023-03-25T11:29:30;99819.66;;;11.05;100.00
29935;BME280;19905;53.370;-6.314;2023-03-25T11:32:07;99818.53;;;11.54;100.00
29935;BME280;19905;53.370;-6.314;2023-03-25T11:34:40;99815.25;;;12.07;100.00
29935;BME280;19905;53.370;-6.314;2023-03-25T11:37:15;99818.59;;;12.27;100.00
29935;BME280;19905;53.370;-6.314;2023-03-25T11:39:49;99803.59;;;13.33;100.00
29935;BME280;19905;53.370;-6.314;2023-03-25T11:42:29;99800.19;;;13.91;100.00
29935;BME280;19905;53.370;-6.314;2023-03-25T11:45:00;99804.44;;;13.34;100.00
29935;BME280;19905;53.370;-6.314;2023-03-25T11:47:33;99802.25;;;13.29;100.00
29935;BME280;19905;53.370;-6.314;2023-03-25T11:50:04;99805.38;;;13.07;100.00
29935;BME280;19905;53.370;-6.314;2023-03-25T11:52:39;99808.00;;;12.63;100.00
29935;BME280;19905;53.370;-6.314;2023-03-25T11:55:15;99802.78;;;12.35;100.00
29935;BME280;19905;53.370;-6.314;2023-03-25T11:57:45;99808.69;;;12.29;100.00
29935;BME280;19905;53.370;-6.314;2023-03-25T12:00:32;99805.28;;;12.19;100.00
29935;BME280;19905;53.370;-6.314;2023-03-25T12:03:16;99806.16;;;11.92;100.00
29935;BME280;19905;53.370;-6.314;2023-03-25T12:21:11;99802.97;;;11.88;100.00
29935;BME280;19905;53.370;-6.314;2023-03-25T12:23:50;99801.00;;;11.53;100.00
29935;BME280;19905;53.370;-6.314;2023-03-25T12:26:27;99793.44;;;11.31;100.00
29935;BME280;19905;53.370;-6.314;2023-03-25T12:29:15;99799.84;;;11.28;100.00
29935;BME280;19905;53.370;-6.314;2023-03-25T12:31:56;99800.25;;;11.33;100.00
29935;BME280;19905;53.370;-6.314;2023-03-25T12:34:37;99799.09;;;11.36;100.00
29935;BME280;19905;53.370;-6.314;2023-03-25T12:37:18;99814.06;;;11.27;100.00
29935;BME280;19905;53.370;-6.314;2023-03-25T12:40:00;99804.28;;;11.37;100.00
29935;BME280;19905;53.370;-6.314;2023-03-25T12:42:39;99824.91;;;11.24;100.00
29935;BME280;19905;53.370;-6.314;2023-03-25T12:45:23;99820.53;;;10.96;100.00
29935;BME280;19905;53.370;-6.314;2023-03-25T12:48:05;99813.72;;;10.64;100.00
29935;BME280;19905;53.370;-6.314;2023-03-25T12:50:47;99823.69;;;10.89;100.00
29935;BME280;19905;53.370;-6.314;2023-03-25T12:53:31;99818.91;;;11.32;100.00
29935;BME280;19905;53.370;-6.314;2023-03-25T12:56:20;99816.47;;;12.13;100.00
29935;BME280;19905;53.370;-6.314;2023-03-25T12:59:10;99794.75;;;12.27;100.00
29935;BME280;19905;53.370;-6.314;2023-03-25T13:01:49;99801.34;;;12.59;100.00
29935;BME280;19905;53.370;-6.314;2023-03-25T13:04:46;99794.06;;;13.22;100.00
29935;BME280;19905;53.370;-6.314;2023-03-25T13:07:20;99792.50;;;13.72;100.00
29935;BME280;19905;53.370;-6.314;2023-03-25T13:09:59;99784.59;;;13.88;100.00
29935;BME280;19905;53.370;-6.314;2023-03-25T13:12:33;99777.31;;;13.98;100.00
29935;BME280;19905;53.370;-6.314;2023-03-25T13:15:10;99780.78;;;13.91;100.00
29935;BME280;19905;53.370;-6.314;2023-03-25T13:17:55;99782.38;;;13.33;100.00
29935;BME280;19905;53.370;-6.314;2023-03-25T13:20:30;99788.56;;;12.54;100.00
29935;BME280;19905;53.370;-6.314;2023-03-25T13:23:03;99781.66;;;12.08;100.00
29935;BME280;19905;53.370;-6.314;2023-03-25T13:25:46;99801.81;;;11.91;100.00
29935;BME280;19905;53.370;-6.314;2023-03-25T13:28:20;99855.03;;;11.51;100.00
29935;BME280;19905;53.370;-6.314;2023-03-25T13:30:54;99862.06;;;8.39;100.00
29935;BME280;19905;53.370;-6.314;2023-03-25T13:33:34;99875.81;;;8.20;100.00
29935;BME280;19905;53.370;-6.314;2023-03-25T13:36:11;99887.25;;;8.42;100.00
29935;BME280;19905;53.370;-6.314;2023-03-25T13:38:54;99888.22;;;8.40;100.00